Time;durP1;ratioP1;P1;durP2;ratioP2;P2;SDS_P1;SDS_P2;PMS_P1;PMS_P2;Temp;Humidity;BMP_temperature;BMP_pressure;BME280_temperature;BME280_humidity;BME280_pressure;Samples;Min_cycle;Max_cycle;Signal;HPM_P1;HPM_P2
2020/12/23 00:00:54;;;;;;;13.37;6.87;;;13.50;97.00;;;;;;5037233;28;20431;-78
2020/12/23 00:03:20;;;;;;;11.33;6.10;;;13.50;97.00;;;;;;5037430;28;20447;-78
2020/12/23 00:05:46;;;;;;;13.13;7.20;;;13.50;97.10;;;;;;5036076;28;20462;-77
2020/12/23 00:08:12;;;;;;;9.40;6.23;;;13.50;97.10;;;;;;5036954;28;20450;-78
2020/12/23 00:10:38;;;;;;;14.53;6.47;;;13.50;97.20;;;;;;5036188;28;20482;-77
2020/12/23 00:13:06;;;;;;;7.93;5.50;;;13.50;97.20;;;;;;5036528;28;20454;-77
2020/12/23 00:15:32;;;;;;;9.80;5.73;;;13.50;97.20;;;;;;5035690;28;20501;-78
2020/12/23 00:17:58;;;;;;;11.33;6.47;;;13.50;97.30;;;;;;5036392;28;20439;-78
2020/12/23 00:20:24;;;;;;;8.70;5.17;;;13.50;97.30;;;;;;5036314;28;20446;-78
2020/12/23 00:22:50;;;;;;;7.97;4.50;;;13.50;97.30;;;;;;5036360;28;20484;-77
2020/12/23 00:25:17;;;;;;;6.50;4.50;;;13.50;97.20;;;;;;5035894;28;20474;-78
2020/12/23 00:27:43;;;;;;;12.07;4.70;;;13.40;97.20;;;;;;5036501;28;20450;-78
2020/12/23 00:30:10;;;;;;;9.37;4.80;;;13.40;97.40;;;;;;5037736;28;20470;-78
2020/12/23 00:32:36;;;;;;;9.53;4.70;;;13.40;97.40;;;;;;5036614;28;20431;-77
2020/12/23 00:35:03;;;;;;;18.57;4.87;;;13.40;97.40;;;;;;5036478;28;20589;-77
2020/12/23 00:37:29;;;;;;;11.17;4.60;;;13.40;97.40;;;;;;5036300;28;20904;-77
2020/12/23 00:39:55;;;;;;;11.90;4.30;;;13.40;97.40;;;;;;5041167;28;20446;-77
2020/12/23 00:42:22;;;;;;;11.13;4.80;;;13.40;97.40;;;;;;5042607;28;20422;-79
2020/12/23 00:44:49;;;;;;;13.47;5.37;;;13.40;97.40;;;;;;5040114;28;20976;-79
2020/12/23 00:47:16;;;;;;;9.73;6.07;;;13.40;97.40;;;;;;5039685;28;20461;-77
2020/12/23 00:49:42;;;;;;;15.33;6.37;;;13.40;97.40;;;;;;5034971;28;20469;-77
2020/12/23 00:52:08;;;;;;;11.70;7.20;;;13.40;97.30;;;;;;5035569;28;20455;-77
2020/12/23 00:54:35;;;;;;;17.83;7.80;;;13.40;97.30;;;;;;5034870;28;20976;-78
2020/12/23 00:57:01;;;;;;;12.40;7.97;;;13.50;97.40;;;;;;5035116;28;20454;-77
2020/12/23 00:59:27;;;;;;;12.10;8.60;;;13.50;97.40;;;;;;5035773;28;20446;-78
2020/12/23 01:01:57;;;;;;;12.10;8.50;;;13.40;97.40;;;;;;5035101;28;20446;-77
2020/12/23 01:04:24;;;;;;;12.53;8.30;;;13.50;97.50;;;;;;5035183;28;20499;-77
2020/12/23 01:06:50;;;;;;;12.70;9.20;;;13.50;97.50;;;;;;5035118;28;20450;-77
2020/12/23 01:09:16;;;;;;;10.20;8.60;;;13.50;97.50;;;;;;5034936;28;20528;-77
2020/12/23 01:11:42;;;;;;;17.50;9.80;;;13.50;97.50;;;;;;5035078;28;20500;-77
2020/12/23 01:14:09;;;;;;;15.10;9.90;;;13.50;97.60;;;;;;5034901;28;20470;-77
2020/12/23 01:16:35;;;;;;;11.43;8.93;;;13.50;97.70;;;;;;5035300;28;20480;-78
2020/12/23 01:19:03;;;;;;;10.60;9.17;;;13.50;97.70;;;;;;5038177;28;20951;-77
2020/12/23 01:21:30;;;;;;;15.90;10.60;;;13.50;97.70;;;;;;5038716;28;20457;-77
2020/12/23 01:23:56;;;;;;;13.53;9.73;;;13.50;97.70;;;;;;5038451;28;20435;-77
2020/12/23 01:26:22;;;;;;;17.13;8.70;;;13.50;97.70;;;;;;5038190;28;20453;-78
2020/12/23 01:28:48;;;;;;;14.40;9.23;;;13.50;97.70;;;;;;5038557;28;20446;-78
2020/12/23 01:31:14;;;;;;;12.63;9.10;;;13.50;97.70;;;;;;5038461;28;20978;-77
2020/12/23 01:33:41;;;;;;;11.57;9.57;;;13.50;97.70;;;;;;5039045;28;20442;-77
2020/12/23 01:36:07;;;;;;;14.40;8.43;;;13.50;98.00;;;;;;5038096;28;20839;-77
2020/12/23 01:38:34;;;;;;;11.97;7.97;;;13.50;97.60;;;;;;5038513;28;20492;-77
2020/12/23 01:41:03;;;;;;;8.40;7.17;;;13.50;97.60;;;;;;5038734;28;20453;-77
2020/12/23 01:43:29;;;;;;;10.83;7.80;;;13.50;97.60;;;;;;5038311;28;20450;-77
2020/12/23 01:45:56;;;;;;;15.83;8.13;;;13.50;97.60;;;;;;5037339;28;21000;-78
2020/12/23 01:48:24;;;;;;;11.53;7.53;;;13.50;97.60;;;;;;5038453;28;20936;-79
2020/12/23 01:50:51;;;;;;;10.67;8.30;;;13.50;97.60;;;;;;5042047;28;20486;-78
2020/12/23 01:53:18;;;;;;;11.90;7.60;;;13.50;97.60;;;;;;5041902;28;20450;-78
2020/12/23 01:55:46;;;;;;;11.23;7.37;;;13.50;97.50;;;;;;5041960;28;20470;-78
2020/12/23 01:58:12;;;;;;;12.27;8.20;;;13.50;97.50;;;;;;5041868;28;20451;-78
2020/12/23 02:00:39;;;;;;;10.10;8.07;;;13.50;97.40;;;;;;5041344;28;20446;-78
2020/12/23 02:03:09;;;;;;;14.93;8.27;;;13.50;97.30;;;;;;5040668;28;20446;-78
2020/12/23 02:05:35;;;;;;;8.43;7.63;;;13.50;97.30;;;;;;5043028;28;20469;-79
2020/12/23 02:08:02;;;;;;;10.73;7.23;;;13.50;97.30;;;;;;5043223;28;20443;-79
2020/12/23 02:10:29;;;;;;;9.00;7.23;;;13.50;97.20;;;;;;5042341;28;20528;-78
2020/12/23 02:12:56;;;;;;;11.30;7.63;;;13.50;97.20;;;;;;5042686;28;20457;-78
2020/12/23 02:15:22;;;;;;;10.00;8.57;;;13.50;97.10;;;;;;5042107;28;20478;-78
2020/12/23 02:17:48;;;;;;;7.80;6.53;;;13.50;97.10;;;;;;5041492;28;20828;-78
2020/12/23 02:20:17;;;;;;;11.77;7.57;;;13.50;97.10;;;;;;5041848;28;20454;-78
2020/12/23 02:22:44;;;;;;;10.13;6.97;;;13.50;97.10;;;;;;5040078;28;20462;-79
2020/12/23 02:25:11;;;;;;;12.80;6.63;;;13.50;97.00;;;;;;5037285;28;20481;-78
2020/12/23 02:27:37;;;;;;;11.37;7.90;;;13.50;97.00;;;;;;5037581;28;20450;-79
2020/12/23 02:30:06;;;;;;;9.37;6.30;;;13.50;97.00;;;;;;5037190;28;20474;-79
2020/12/23 02:32:32;;;;;;;10.10;6.20;;;13.50;97.00;;;;;;5037479;28;20451;-78
2020/12/23 02:34:58;;;;;;;7.23;5.53;;;13.50;96.90;;;;;;5037676;28;20485;-79
2020/12/23 02:37:25;;;;;;;7.97;5.77;;;13.50;96.80;;;;;;5037022;28;20446;-78
2020/12/23 02:39:53;;;;;;;8.00;5.37;;;13.50;96.80;;;;;;5036932;28;20853;-79
2020/12/23 02:42:22;;;;;;;6.33;4.40;;;13.50;96.80;;;;;;5037357;28;20431;-79
2020/12/23 02:44:48;;;;;;;5.73;4.57;;;13.50;96.80;;;;;;5037250;28;20473;-78
2020/12/23 02:47:17;;;;;;;6.93;4.77;;;13.50;96.70;;;;;;5037024;28;20442;-79
2020/12/23 02:49:44;;;;;;;6.30;4.80;;;13.50;96.80;;;;;;5036823;28;20987;-79
2020/12/23 02:52:12;;;;;;;4.40;3.93;;;13.40;96.70;;;;;;5037070;28;20457;-79
2020/12/23 02:54:38;;;;;;;6.00;3.80;;;13.40;96.70;;;;;;5037071;28;20467;-79
2020/12/23 02:57:06;;;;;;;4.23;3.00;;;13.50;96.70;;;;;;5037077;28;20447;-79
2020/12/23 02:59:33;;;;;;;6.30;3.90;;;13.50;96.70;;;;;;5036896;28;20453;-79
2020/12/23 03:01:59;;;;;;;4.27;3.60;;;13.50;96.60;;;;;;5036881;28;20453;-79
2020/12/23 03:04:25;;;;;;;3.97;2.90;;;13.40;96.60;;;;;;5037048;28;20462;-79
2020/12/23 03:06:51;;;;;;;6.10;3.40;;;13.40;97.00;;;;;;5037099;28;20450;-78
2020/12/23 03:09:18;;;;;;;4.67;3.40;;;13.50;96.70;;;;;;5036242;28;20485;-79
2020/12/23 03:11:44;;;;;;;3.63;3.33;;;13.50;96.70;;;;;;5036367;28;20962;-79
2020/12/23 03:14:11;;;;;;;5.20;3.13;;;13.50;96.70;;;;;;5041641;28;20494;-79
2020/12/23 03:16:37;;;;;;;4.67;3.40;;;13.50;96.70;;;;;;5043796;28;20442;-79
2020/12/23 03:19:04;;;;;;;4.97;3.43;;;13.40;96.60;;;;;;5040565;28;20469;-79
2020/12/23 03:21:30;;;;;;;5.37;4.80;;;13.50;96.70;;;;;;5037604;28;20450;-79
2020/12/23 03:23:56;;;;;;;5.47;4.73;;;13.40;96.80;;;;;;5036809;28;20446;-79
2020/12/23 03:26:23;;;;;;;6.47;4.57;;;13.40;96.80;;;;;;5036731;28;20811;-79
2020/12/23 03:28:49;;;;;;;7.83;6.20;;;13.30;96.90;;;;;;5036608;28;20442;-79
2020/12/23 03:31:16;;;;;;;9.23;6.47;;;13.30;97.10;;;;;;5036295;28;21009;-79
2020/12/23 03:33:43;;;;;;;8.00;6.63;;;13.40;97.20;;;;;;5036688;28;20480;-79
2020/12/23 03:36:09;;;;;;;8.90;7.27;;;13.30;97.10;;;;;;5036263;28;20827;-79
2020/12/23 03:38:35;;;;;;;8.13;7.20;;;13.30;97.10;;;;;;5036311;28;20449;-79
2020/12/23 03:41:02;;;;;;;7.73;6.43;;;13.30;97.20;;;;;;5035879;28;20438;-79
2020/12/23 03:43:28;;;;;;;8.47;6.60;;;13.30;97.30;;;;;;5036293;28;20450;-79
2020/12/23 03:45:54;;;;;;;10.10;6.13;;;13.30;97.30;;;;;;5035998;28;20494;-79
2020/12/23 03:48:21;;;;;;;6.37;5.70;;;13.40;97.40;;;;;;5035912;28;20443;-79
2020/12/23 03:50:47;;;;;;;9.87;7.90;;;13.40;97.40;;;;;;5035994;28;20483;-79
2020/12/23 03:53:14;;;;;;;6.63;5.00;;;13.40;97.40;;;;;;5036110;28;20434;-79
2020/12/23 03:55:40;;;;;;;7.73;5.60;;;13.40;97.50;;;;;;5035574;28;20473;-79
2020/12/23 03:58:07;;;;;;;6.43;5.13;;;13.30;97.60;;;;;;5036131;28;20829;-79
2020/12/23 04:00:33;;;;;;;6.50;3.97;;;13.30;97.70;;;;;;5035625;28;20442;-79
2020/12/23 04:02:59;;;;;;;8.50;3.67;;;13.30;97.80;;;;;;5035725;28;20509;-79
2020/12/23 04:05:26;;;;;;;5.27;4.77;;;13.30;97.90;;;;;;5036020;28;20520;-79
2020/12/23 04:07:52;;;;;;;5.40;4.83;;;13.30;97.90;;;;;;5035628;28;20454;-79
2020/12/23 04:10:19;;;;;;;5.00;3.80;;;13.40;98.00;;;;;;5035993;28;20486;-79
2020/12/23 04:12:45;;;;;;;7.20;5.70;;;13.40;98.00;;;;;;5036112;28;20447;-79
2020/12/23 04:15:12;;;;;;;7.57;3.70;;;13.30;98.00;;;;;;5035052;28;21009;-79
2020/12/23 04:17:38;;;;;;;8.10;3.50;;;13.30;98.20;;;;;;5035332;28;20442;-79
2020/12/23 04:20:06;;;;;;;4.57;3.30;;;13.30;98.20;;;;;;5036039;28;20438;-78
2020/12/23 04:22:34;;;;;;;10.93;3.50;;;13.40;98.30;;;;;;5035530;28;20450;-79
2020/12/23 04:25:01;;;;;;;6.57;3.40;;;13.40;98.30;;;;;;5035191;28;20462;-79
2020/12/23 04:27:27;;;;;;;4.73;3.20;;;13.40;98.30;;;;;;5035374;28;20450;-78
2020/12/23 04:29:54;;;;;;;6.13;3.57;;;13.40;98.30;;;;;;5037677;28;20509;-78
2020/12/23 04:32:20;;;;;;;8.53;3.70;;;13.40;98.30;;;;;;5038427;28;20451;-78
2020/12/23 04:34:46;;;;;;;5.40;4.30;;;13.40;98.30;;;;;;5038200;28;20478;-78
2020/12/23 04:37:13;;;;;;;4.90;3.63;;;13.40;98.50;;;;;;5038113;28;20454;-78
2020/12/23 04:39:40;;;;;;;4.00;3.60;;;13.40;98.50;;;;;;5039244;28;20450;-78
2020/12/23 04:42:06;;;;;;;4.87;3.90;;;13.40;98.50;;;;;;5039300;28;20450;-78
2020/12/23 04:44:35;;;;;;;4.20;3.77;;;13.40;98.50;;;;;;5039280;28;21002;-78
2020/12/23 04:47:03;;;;;;;6.83;3.50;;;13.40;98.80;;;;;;5040180;28;20554;-78
2020/12/23 04:49:35;;;;;;;6.00;3.20;;;13.40;98.60;;;;;;5039508;28;20474;-78
2020/12/23 04:52:05;;;;;;;2.83;2.50;;;13.40;98.60;;;;;;5038665;28;20411;-78
2020/12/23 04:54:31;;;;;;;3.73;2.43;;;13.40;98.60;;;;;;5039502;28;20512;-78
2020/12/23 04:56:59;;;;;;;3.30;2.03;;;13.40;98.60;;;;;;5043149;28;20433;-79
2020/12/23 04:59:25;;;;;;;4.10;2.57;;;13.40;98.60;;;;;;5044114;28;20434;-78
2020/12/23 05:01:51;;;;;;;4.03;2.20;;;13.40;98.50;;;;;;5043588;28;20446;-78
2020/12/23 05:04:18;;;;;;;2.93;2.00;;;13.40;98.40;;;;;;5042930;28;20485;-78
2020/12/23 05:06:44;;;;;;;4.13;2.10;;;13.40;98.30;;;;;;5043137;28;20944;-78
2020/12/23 05:09:10;;;;;;;3.20;1.90;;;13.50;98.30;;;;;;5042986;28;20450;-78
2020/12/23 05:11:36;;;;;;;6.60;1.47;;;13.40;98.20;;;;;;5043415;28;20453;-78
2020/12/23 05:14:08;;;;;;;2.67;1.87;;;13.40;98.30;;;;;;5042939;28;20442;-78
2020/12/23 05:16:35;;;;;;;3.17;1.70;;;13.50;98.30;;;;;;5042894;28;20439;-78
2020/12/23 05:19:02;;;;;;;4.00;2.30;;;13.50;98.10;;;;;;5043091;28;20445;-78
2020/12/23 05:21:29;;;;;;;3.20;1.67;;;13.40;98.10;;;;;;5042984;28;20446;-78
2020/12/23 05:23:56;;;;;;;2.30;1.60;;;13.40;98.10;;;;;;5040696;28;20934;-78
2020/12/23 05:26:24;;;;;;;4.83;2.00;;;13.40;98.10;;;;;;5040234;28;20453;-78
2020/12/23 05:28:51;;;;;;;2.73;2.00;;;13.40;98.10;;;;;;5041726;28;20826;-78
2020/12/23 05:31:21;;;;;;;4.00;2.03;;;13.40;98.10;;;;;;5042905;28;20454;-78
2020/12/23 05:33:48;;;;;;;3.07;2.20;;;13.40;98.20;;;;;;5042887;28;20474;-78
2020/12/23 05:36:16;;;;;;;5.10;2.10;;;13.40;98.20;;;;;;5042245;28;20884;-78
2020/12/23 05:38:43;;;;;;;3.33;2.30;;;13.40;98.20;;;;;;5042447;28;20454;-77
2020/12/23 05:41:10;;;;;;;1.63;1.53;;;13.40;98.30;;;;;;5042968;28;20443;-78
2020/12/23 05:43:37;;;;;;;3.00;1.60;;;13.40;98.30;;;;;;5042623;28;20446;-78
2020/12/23 05:46:05;;;;;;;2.33;1.50;;;13.40;98.40;;;;;;5043146;28;20474;-78
2020/12/23 05:48:34;;;;;;;1.37;1.00;;;13.40;98.40;;;;;;5042101;28;20446;-78
2020/12/23 05:51:01;;;;;;;1.87;1.13;;;13.40;98.40;;;;;;5042480;28;20474;-78
2020/12/23 05:53:28;;;;;;;1.87;1.30;;;13.40;98.40;;;;;;5042843;28;20451;-78
2020/12/23 05:55:55;;;;;;;1.87;0.90;;;13.40;98.40;;;;;;5042853;28;20455;-78
2020/12/23 05:58:22;;;;;;;1.00;1.00;;;13.40;98.50;;;;;;5042715;28;20446;-78
2020/12/23 06:00:49;;;;;;;2.33;1.57;;;13.40;98.40;;;;;;5043037;28;20454;-78
2020/12/23 06:03:21;;;;;;;1.40;0.70;;;13.40;98.40;;;;;;5042758;28;20814;-78
2020/12/23 06:05:58;;;;;;;1.30;0.83;;;13.40;98.40;;;;;;5042812;28;20524;-78
2020/12/23 06:08:30;;;;;;;1.27;0.90;;;13.40;98.40;;;;;;5042251;28;20920;-78
2020/12/23 06:11:26;;;;;;;1.23;0.60;;;13.40;98.40;;;;;;5043303;28;20493;-78
2020/12/23 06:14:08;;;;;;;1.43;0.70;;;13.40;98.30;;;;;;5042724;28;20427;-78
2020/12/23 06:16:37;;;;;;;1.37;0.63;;;13.40;98.30;;;;;;5040740;28;20982;-78
2020/12/23 06:19:05;;;;;;;3.23;1.30;;;13.30;98.20;;;;;;5041875;28;20422;-78
2020/12/23 06:21:32;;;;;;;0.90;0.70;;;13.30;98.20;;;;;;5041590;28;20481;-77
2020/12/23 06:24:02;;;;;;;3.23;0.97;;;13.30;98.30;;;;;;5041124;28;20447;-78
2020/12/23 06:26:30;;;;;;;2.87;0.90;;;13.30;98.10;;;;;;5041579;28;20423;-78
2020/12/23 06:28:58;;;;;;;1.43;0.90;;;13.40;98.20;;;;;;5041199;28;20431;-77
2020/12/23 06:31:29;;;;;;;1.37;0.60;;;13.40;98.10;;;;;;5041466;28;20443;-77
2020/12/23 06:33:56;;;;;;;0.83;0.60;;;13.40;98.10;;;;;;5041832;28;20907;-78
2020/12/23 06:36:32;;;;;;;2.50;1.30;;;13.40;97.90;;;;;;5041729;28;20453;-77
2020/12/23 06:39:28;;;;;;;1.40;0.87;;;13.40;97.90;;;;;;5041921;28;20427;-77
2020/12/23 06:41:55;;;;;;;2.20;0.83;;;13.40;97.90;;;;;;5041884;28;20476;-78
2020/12/23 06:44:22;;;;;;;1.57;1.40;;;13.30;97.80;;;;;;5040233;28;20462;-78
2020/12/23 06:47:13;;;;;;;6.73;1.50;;;13.40;97.90;;;;;;5039835;28;20443;-77
2020/12/23 06:49:41;;;;;;;1.87;1.43;;;13.30;97.70;;;;;;5026496;28;20492;-77
2020/12/23 06:52:46;;;;;;;2.07;1.73;;;13.30;97.70;;;;;;5040283;28;20497;-78
2020/12/23 06:55:14;;;;;;;1.53;1.00;;;13.30;97.80;;;;;;5040651;28;20462;-78
2020/12/23 06:57:56;;;;;;;0.97;0.97;;;13.30;97.80;;;;;;5040874;28;20516;-77
2020/12/23 07:00:49;;;;;;;1.60;0.90;;;13.30;97.80;;;;;;5041672;28;20429;-78
2020/12/23 07:03:17;;;;;;;1.87;1.40;;;13.30;97.80;;;;;;5041825;28;20427;-78
2020/12/23 07:05:45;;;;;;;5.67;1.30;;;13.30;97.80;;;;;;5039317;28;20485;-78
2020/12/23 07:08:17;;;;;;;4.13;1.50;;;13.30;97.90;;;;;;5039896;28;20805;-77
2020/12/23 07:10:49;;;;;;;2.13;1.80;;;13.30;97.90;;;;;;5040697;28;20469;-78
2020/12/23 07:13:17;;;;;;;2.20;1.80;;;13.30;97.90;;;;;;5041573;28;20439;-78
2020/12/23 07:15:45;;;;;;;3.87;2.03;;;13.40;97.90;;;;;;5040621;28;20478;-78
2020/12/23 07:18:13;;;;;;;3.30;1.73;;;13.30;97.80;;;;;;5040905;28;20442;-77
2020/12/23 07:20:41;;;;;;;3.27;2.30;;;13.30;97.80;;;;;;5039791;28;20787;-77
2020/12/23 07:23:10;;;;;;;7.50;3.20;;;13.40;97.80;;;;;;5039928;28;20442;-78
2020/12/23 07:25:42;;;;;;;4.83;2.10;;;13.30;97.70;;;;;;5039399;28;20838;-77
2020/12/23 07:28:09;;;;;;;5.60;2.67;;;13.30;97.80;;;;;;5040339;28;20451;-77
2020/12/23 07:30:38;;;;;;;2.83;2.53;;;13.30;97.80;;;;;;5038942;28;20986;-77
2020/12/23 07:33:08;;;;;;;2.10;1.87;;;13.30;97.80;;;;;;5039101;28;20446;-78
2020/12/23 07:35:35;;;;;;;3.00;2.00;;;13.20;97.80;;;;;;5040269;28;20477;-77
2020/12/23 07:38:03;;;;;;;3.33;2.10;;;13.20;97.90;;;;;;5040311;28;20936;-78
2020/12/23 07:40:30;;;;;;;3.33;1.60;;;13.20;97.90;;;;;;5040701;28;20793;-77
2020/12/23 07:42:58;;;;;;;3.80;1.60;;;13.20;97.90;;;;;;5040617;28;20430;-78
2020/12/23 07:45:25;;;;;;;2.00;1.50;;;13.20;97.90;;;;;;5040481;28;20497;-77
2020/12/23 07:47:57;;;;;;;4.90;1.47;;;13.20;97.90;;;;;;5039849;28;20461;-77
2020/12/23 07:50:24;;;;;;;2.23;1.33;;;13.20;97.90;;;;;;5039832;28;20467;-77
2020/12/23 07:52:51;;;;;;;1.70;1.60;;;13.20;97.90;;;;;;5039300;28;20446;-78
2020/12/23 07:55:19;;;;;;;1.83;1.33;;;13.10;97.90;;;;;;5039562;28;20466;-78
2020/12/23 07:57:47;;;;;;;1.87;1.50;;;13.20;98.00;;;;;;5040574;28;20447;-77
2020/12/23 08:00:15;;;;;;;2.10;1.80;;;13.20;98.10;;;;;;5040783;28;20442;-78
2020/12/23 08:02:42;;;;;;;2.93;1.50;;;13.10;98.10;;;;;;5040189;28;20446;-78
2020/12/23 08:05:10;;;;;;;3.73;1.87;;;13.10;98.20;;;;;;5042023;28;20951;-78
2020/12/23 08:07:44;;;;;;;2.20;1.57;;;13.10;98.20;;;;;;5042527;28;20431;-78
2020/12/23 08:10:12;;;;;;;5.07;2.17;;;13.10;98.10;;;;;;5041576;28;20822;-78
2020/12/23 08:12:40;;;;;;;3.47;2.03;;;13.20;98.10;;;;;;5042337;28;20446;-78
2020/12/23 08:15:11;;;;;;;2.90;1.50;;;13.20;98.10;;;;;;5041162;28;20486;-78
2020/12/23 08:17:38;;;;;;;2.37;1.60;;;13.20;97.90;;;;;;5041608;28;20455;-78
2020/12/23 08:20:06;;;;;;;2.73;1.70;;;13.20;98.00;;;;;;5041743;28;20439;-78
2020/12/23 08:22:33;;;;;;;1.93;1.50;;;13.20;98.00;;;;;;5040948;28;20458;-78
2020/12/23 08:25:01;;;;;;;3.33;1.33;;;13.10;97.90;;;;;;5041395;28;20585;-77
2020/12/23 08:27:28;;;;;;;3.10;1.57;;;13.20;98.10;;;;;;5041249;28;20526;-78
2020/12/23 08:29:55;;;;;;;2.63;2.03;;;13.20;98.10;;;;;;5041278;28;20827;-78
2020/12/23 08:32:26;;;;;;;8.63;2.93;;;13.20;98.00;;;;;;5041132;28;20453;-77
2020/12/23 08:34:54;;;;;;;2.80;1.97;;;13.20;98.00;;;;;;5039452;28;20493;-77
2020/12/23 08:37:23;;;;;;;3.43;2.00;;;13.20;97.90;;;;;;5037376;28;20450;-77
2020/12/23 08:39:53;;;;;;;2.30;1.67;;;13.30;97.90;;;;;;5035497;28;20446;-77
2020/12/23 08:42:21;;;;;;;2.43;1.67;;;13.20;97.80;;;;;;5035454;28;20525;-77
2020/12/23 08:44:50;;;;;;;1.83;1.50;;;13.30;97.90;;;;;;5034684;28;20577;-77
2020/12/23 08:47:28;;;;;;;1.90;1.70;;;13.30;97.80;;;;;;5035026;28;20486;-77
2020/12/23 08:49:55;;;;;;;2.50;1.60;;;13.30;97.80;;;;;;5035255;28;20469;-78
2020/12/23 08:52:23;;;;;;;2.20;1.57;;;13.40;97.80;;;;;;5035303;28;20939;-78
2020/12/23 08:54:49;;;;;;;2.03;1.63;;;13.40;97.70;;;;;;5035862;28;20466;-77
2020/12/23 08:57:21;;;;;;;2.20;1.50;;;13.40;97.50;;;;;;5035857;28;20486;-77
2020/12/23 08:59:47;;;;;;;2.77;1.60;;;13.50;97.50;;;;;;5036028;28;20423;-77
2020/12/23 09:02:14;;;;;;;2.00;1.30;;;13.40;97.70;;;;;;5035734;28;20446;-77
2020/12/23 09:04:41;;;;;;;2.13;1.60;;;13.50;97.40;;;;;;5037134;28;20470;-77
2020/12/23 09:07:08;;;;;;;2.40;1.40;;;13.50;97.00;;;;;;5037171;28;20932;-78
2020/12/23 09:09:35;;;;;;;1.90;1.60;;;13.60;97.30;;;;;;5037195;28;20477;-77
2020/12/23 09:12:04;;;;;;;1.40;1.30;;;13.60;97.10;;;;;;5037943;28;20446;-78
2020/12/23 09:14:31;;;;;;;2.40;1.17;;;13.70;97.10;;;;;;5038204;28;20485;-77
2020/12/23 09:16:59;;;;;;;3.60;1.17;;;13.70;96.90;;;;;;5038336;28;20453;-78
2020/12/23 09:19:42;;;;;;;1.83;1.20;;;13.70;96.70;;;;;;5038137;28;20469;-78
2020/12/23 09:22:10;;;;;;;2.97;1.40;;;13.70;96.50;;;;;;5038481;28;20505;-78
2020/12/23 09:24:37;;;;;;;1.63;1.53;;;13.70;96.50;;;;;;5038477;28;20922;-78
2020/12/23 09:27:18;;;;;;;1.33;1.13;;;13.80;96.50;;;;;;5038197;28;20959;-78
2020/12/23 09:29:44;;;;;;;1.20;1.10;;;13.80;96.50;;;;;;5038365;28;20470;-78
2020/12/23 09:32:10;;;;;;;1.40;1.30;;;13.90;96.50;;;;;;5038466;28;20808;-78
2020/12/23 09:34:38;;;;;;;1.50;1.40;;;13.90;96.50;;;;;;5039016;28;20462;-78
2020/12/23 09:37:05;;;;;;;1.83;1.37;;;14.00;96.40;;;;;;5038375;28;20470;-79
2020/12/23 09:39:34;;;;;;;1.50;1.30;;;14.10;96.40;;;;;;5039310;28;20963;-78
2020/12/23 09:42:01;;;;;;;1.53;1.20;;;14.10;96.20;;;;;;5039901;28;20948;-79
2020/12/23 09:44:27;;;;;;;1.90;1.23;;;14.20;96.20;;;;;;5039934;28;20867;-77
2020/12/23 09:46:54;;;;;;;2.30;1.33;;;14.30;96.20;;;;;;5039105;28;20434;-77
2020/12/23 09:49:20;;;;;;;3.10;1.57;;;14.30;96.00;;;;;;5039339;28;20477;-77
2020/12/23 09:51:47;;;;;;;4.03;1.63;;;14.40;95.90;;;;;;5037959;28;20454;-77
2020/12/23 09:54:13;;;;;;;1.30;1.20;;;14.40;95.60;;;;;;5038230;28;20457;-77
2020/12/23 09:56:48;;;;;;;1.47;1.20;;;14.50;95.40;;;;;;5038192;28;20496;-77
2020/12/23 09:59:14;;;;;;;6.17;1.90;;;14.50;95.20;;;;;;5038926;28;20485;-78
2020/12/23 10:01:40;;;;;;;1.37;1.10;;;14.60;95.10;;;;;;5038293;28;20504;-77
2020/12/23 10:04:06;;;;;;;1.03;0.87;;;14.70;95.00;;;;;;5037773;28;20937;-78
2020/12/23 10:06:32;;;;;;;2.80;1.57;;;14.70;94.90;;;;;;5038349;28;20481;-78
2020/12/23 10:08:58;;;;;;;1.80;1.27;;;14.80;94.60;;;;;;5038370;28;20496;-77
2020/12/23 10:11:25;;;;;;;1.27;1.10;;;14.90;94.30;;;;;;5037751;28;20482;-77
2020/12/23 10:13:52;;;;;;;1.60;1.50;;;14.90;94.00;;;;;;5038371;28;20451;-78
2020/12/23 10:16:18;;;;;;;1.50;1.20;;;14.80;93.80;;;;;;5037872;28;20992;-77
2020/12/23 10:18:44;;;;;;;1.67;1.30;;;14.80;93.80;;;;;;5037913;28;20431;-77
2020/12/23 10:21:10;;;;;;;2.97;1.57;;;14.80;93.70;;;;;;5038353;28;20442;-77
2020/12/23 10:23:37;;;;;;;4.43;2.53;;;14.70;93.70;;;;;;5037869;28;20439;-77
2020/12/23 10:26:03;;;;;;;2.60;1.87;;;14.70;93.80;;;;;;5038432;28;20477;-77
2020/12/23 10:28:29;;;;;;;1.67;1.57;;;14.60;93.90;;;;;;5038004;28;20451;-77
2020/12/23 10:30:56;;;;;;;2.00;1.73;;;14.60;94.00;;;;;;5038972;28;20466;-78
2020/12/23 10:33:22;;;;;;;2.27;1.40;;;14.50;94.00;;;;;;5041884;28;20904;-78
2020/12/23 10:35:48;;;;;;;3.23;1.80;;;14.60;94.00;;;;;;5041660;28;20469;-77
2020/12/23 10:38:14;;;;;;;1.90;1.67;;;14.50;93.90;;;;;;5040557;28;20450;-78
2020/12/23 10:40:41;;;;;;;1.30;1.20;;;14.50;94.00;;;;;;5041838;28;20430;-78
2020/12/23 10:43:07;;;;;;;3.00;2.17;;;14.40;94.10;;;;;;5043242;28;20442;-78
2020/12/23 10:45:33;;;;;;;2.10;1.80;;;14.40;94.10;;;;;;5040657;28;20477;-78
2020/12/23 10:48:00;;;;;;;1.37;1.27;;;14.40;94.20;;;;;;5041395;28;20455;-78
2020/12/23 10:50:26;;;;;;;1.47;1.20;;;14.30;94.50;;;;;;5040313;28;20486;-78
2020/12/23 10:52:52;;;;;;;1.73;1.30;;;14.30;94.60;;;;;;5040697;28;20452;-78
2020/12/23 10:55:18;;;;;;;1.60;1.43;;;14.30;94.30;;;;;;5034937;28;20493;-78
2020/12/23 10:57:45;;;;;;;1.33;1.10;;;14.30;94.40;;;;;;5041718;28;20447;-79
2020/12/23 11:00:11;;;;;;;2.60;1.50;;;14.30;94.40;;;;;;5040851;28;20443;-78
2020/12/23 11:02:37;;;;;;;2.30;1.90;;;14.30;94.40;;;;;;5040482;28;20859;-78
2020/12/23 11:05:04;;;;;;;2.47;1.43;;;14.20;94.50;;;;;;5041673;28;20478;-78
2020/12/23 11:07:30;;;;;;;3.77;1.40;;;14.10;94.50;;;;;;5041644;28;20453;-78
2020/12/23 11:09:56;;;;;;;1.60;1.50;;;14.10;94.70;;;;;;5041448;28;20468;-78
2020/12/23 11:12:23;;;;;;;2.20;1.10;;;14.00;94.80;;;;;;5041641;28;20853;-79
2020/12/23 11:14:49;;;;;;;2.63;1.20;;;14.00;94.80;;;;;;5040796;28;20490;-78
2020/12/23 11:17:17;;;;;;;1.43;1.30;;;14.00;94.90;;;;;;5041296;28;20450;-77
2020/12/23 11:19:43;;;;;;;3.20;1.87;;;14.00;95.00;;;;;;5040565;28;20443;-78
2020/12/23 11:22:10;;;;;;;2.13;1.60;;;14.00;95.10;;;;;;5036562;28;20438;-78
2020/12/23 11:24:36;;;;;;;3.57;1.57;;;14.00;95.30;;;;;;5035998;28;20478;-78
2020/12/23 11:27:02;;;;;;;2.50;1.37;;;13.90;95.30;;;;;;5035993;28;20435;-78
2020/12/23 11:29:28;;;;;;;2.60;1.67;;;14.00;95.60;;;;;;5035862;28;20431;-78
2020/12/23 11:31:55;;;;;;;2.90;1.60;;;13.90;95.60;;;;;;5035428;28;20836;-78
2020/12/23 11:34:21;;;;;;;4.50;1.53;;;13.90;95.70;;;;;;5035205;28;20470;-78
2020/12/23 11:36:47;;;;;;;2.60;1.50;;;13.90;95.80;;;;;;5034941;28;20446;-77
2020/12/23 11:39:14;;;;;;;2.20;1.53;;;13.90;95.90;;;;;;5035034;28;20784;-77
2020/12/23 11:41:40;;;;;;;2.00;1.73;;;13.90;96.10;;;;;;5034316;28;20948;-77
2020/12/23 11:44:07;;;;;;;4.90;2.57;;;13.90;96.20;;;;;;5034652;28;20866;-78
2020/12/23 11:46:33;;;;;;;4.27;2.37;;;13.90;96.20;;;;;;5034807;28;20454;-77
2020/12/23 11:48:59;;;;;;;2.33;2.13;;;14.00;96.30;;;;;;5034943;28;20828;-77
2020/12/23 11:51:25;;;;;;;8.03;5.03;;;14.00;96.40;;;;;;5035074;28;20478;-78
2020/12/23 11:53:53;;;;;;;5.90;4.33;;;14.00;96.50;;;;;;5035145;28;20450;-78
2020/12/23 11:56:20;;;;;;;4.87;3.40;;;14.00;96.60;;;;;;5035446;28;20474;-79
2020/12/23 11:58:46;;;;;;;3.77;1.27;;;13.90;96.60;;;;;;5035535;28;20457;-79
2020/12/23 12:01:12;;;;;;;5.43;1.80;;;13.90;96.80;;;;;;5034917;28;20513;-80
2020/12/23 12:03:38;;;;;;;5.13;1.23;;;13.90;96.90;;;;;;5035302;28;20446;-79
2020/12/23 12:06:05;;;;;;;2.37;1.20;;;14.00;96.90;;;;;;5035376;28;20467;-79
2020/12/23 12:08:34;;;;;;;5.07;1.77;;;14.00;97.00;;;;;;5035369;28;20504;-79
2020/12/23 12:11:00;;;;;;;3.93;1.60;;;14.00;97.00;;;;;;5035302;28;20514;-79
2020/12/23 12:13:27;;;;;;;1.73;1.10;;;14.00;97.00;;;;;;5035597;28;20862;-79
2020/12/23 12:15:53;;;;;;;3.47;1.40;;;14.00;97.10;;;;;;5034950;28;20995;-79
2020/12/23 12:18:20;;;;;;;1.83;1.10;;;14.00;97.10;;;;;;5036872;28;20816;-83
2020/12/23 12:20:46;;;;;;;1.27;0.90;;;14.10;97.10;;;;;;5035918;28;20808;-80
2020/12/23 12:23:12;;;;;;;3.83;0.90;;;14.10;97.20;;;;;;5034908;28;20454;-79
2020/12/23 12:25:39;;;;;;;2.40;0.80;;;14.10;97.20;;;;;;5035024;28;20967;-80
2020/12/23 12:28:05;;;;;;;2.00;0.70;;;14.00;97.30;;;;;;5035490;28;20450;-80
2020/12/23 12:30:32;;;;;;;4.93;1.10;;;14.00;97.50;;;;;;5035290;28;20467;-80
2020/12/23 12:32:58;;;;;;;0.73;0.50;;;13.90;97.60;;;;;;5034817;28;20458;-79
2020/12/23 12:35:24;;;;;;;4.43;0.90;;;13.90;97.70;;;;;;5034798;28;20466;-80
2020/12/23 12:37:51;;;;;;;1.97;1.00;;;13.80;97.80;;;;;;5035302;28;20442;-80
2020/12/23 12:40:17;;;;;;;2.20;1.00;;;13.80;98.00;;;;;;5035450;28;20777;-81
2020/12/23 12:42:43;;;;;;;1.83;1.00;;;13.70;98.20;;;;;;5035244;28;20458;-80
2020/12/23 12:45:09;;;;;;;1.70;0.77;;;13.70;98.10;;;;;;5034954;28;20831;-80
2020/12/23 12:47:36;;;;;;;1.60;0.73;;;13.70;98.20;;;;;;5035406;28;20450;-79